createdAt,value
2022-12-18T00:03:27.231Z,30.33
2022-12-18T00:08:29.754Z,32.75
2022-12-18T00:13:32.256Z,37.30
2022-12-18T00:18:34.617Z,29.33
2022-12-18T00:23:38.257Z,30.38
2022-12-18T00:28:41.118Z,37.03
2022-12-18T00:33:43.730Z,31.48
2022-12-18T00:38:46.609Z,36.00
2022-12-18T00:43:48.850Z,32.67
2022-12-18T00:48:51.152Z,35.53
2022-12-18T00:53:53.793Z,31.45
2022-12-18T00:58:56.137Z,32.22
2022-12-18T01:03:58.980Z,29.00
2022-12-18T01:09:01.545Z,33.85
2022-12-18T01:14:03.933Z,35.22
2022-12-18T01:19:06.222Z,38.10
2022-12-18T01:24:08.943Z,30.67
2022-12-18T01:29:11.145Z,29.33
2022-12-18T01:34:13.359Z,29.85
2022-12-18T01:39:16.420Z,33.05
2022-12-18T01:44:56.693Z,32.72
2022-12-18T01:50:01.488Z,34.83
2022-12-18T01:55:06.407Z,34.85
2022-12-18T02:00:15.738Z,31.38
2022-12-18T02:05:36.218Z,34.35
2022-12-18T02:11:08.147Z,31.88
2022-12-18T02:16:29.337Z,35.30
2022-12-18T02:21:51.459Z,30.98
2022-12-18T02:27:03.121Z,31.98
2022-12-18T02:32:10.828Z,30.55
2022-12-18T02:37:16.420Z,32.45
2022-12-18T02:42:20.183Z,32.15
2022-12-18T02:47:25.656Z,27.15
2022-12-18T02:52:30.356Z,27.88
2022-12-18T02:57:46.207Z,27.95
2022-12-18T03:02:57.351Z,24.10
2022-12-18T03:08:05.505Z,23.65
2022-12-18T03:13:13.585Z,20.35
2022-12-18T03:18:26.875Z,25.02
2022-12-18T03:23:33.944Z,19.60
2022-12-18T03:28:41.315Z,20.50
2022-12-18T03:33:54.965Z,22.77
2022-12-18T03:38:59.384Z,21.52
2022-12-18T03:44:10.355Z,18.30
2022-12-18T03:49:31.300Z,20.83
2022-12-18T03:54:34.561Z,17.33
2022-12-18T03:59:39.125Z,20.90
2022-12-18T04:04:43.850Z,19.02
2022-12-18T04:09:47.755Z,19.60
2022-12-18T04:14:50.072Z,18.55
2022-12-18T04:19:52.357Z,19.13
2022-12-18T04:24:54.562Z,18.85
2022-12-18T04:29:56.829Z,16.20
2022-12-18T04:34:59.244Z,18.67
2022-12-18T04:40:01.426Z,17.35
2022-12-18T04:45:03.960Z,20.15
2022-12-18T04:50:06.785Z,18.05
2022-12-18T04:55:09.443Z,16.92
2022-12-18T05:00:12.310Z,19.77
2022-12-18T05:05:14.546Z,22.70
2022-12-18T05:10:16.995Z,20.98
2022-12-18T05:15:19.300Z,23.15
2022-12-18T05:20:21.602Z,24.13
2022-12-18T05:25:25.098Z,22.70
2022-12-18T05:30:27.405Z,23.13
2022-12-18T05:35:29.672Z,25.15
2022-12-18T05:40:32.074Z,24.15
2022-12-18T05:45:39.601Z,33.40
2022-12-18T05:50:43.947Z,28.60
2022-12-18T05:55:49.182Z,23.52
2022-12-18T06:00:51.374Z,23.13
2022-12-18T06:05:53.637Z,26.10
2022-12-18T06:10:55.999Z,28.65
2022-12-18T06:15:58.324Z,32.78
2022-12-18T06:21:01.768Z,31.33
2022-12-18T06:26:10.132Z,34.65
2022-12-18T06:31:13.440Z,32.90
2022-12-18T06:36:15.812Z,33.70
2022-12-18T06:41:21.253Z,31.88
2022-12-18T06:51:44.192Z,33.10
2022-12-18T06:56:49.369Z,32.67
2022-12-18T07:01:51.918Z,34.30
2022-12-18T07:06:54.234Z,36.25
2022-12-18T07:11:56.705Z,39.85
2022-12-18T07:17:00.260Z,36.45
2022-12-18T07:22:02.686Z,36.28
2022-12-18T07:27:05.263Z,40.80
2022-12-18T07:32:10.273Z,31.60
2022-12-18T07:37:12.822Z,34.50
2022-12-18T07:42:33.336Z,74.38
2022-12-18T07:47:39.382Z,27.00
2022-12-18T07:52:41.599Z,33.70
2022-12-18T07:57:53.414Z,32.08
2022-12-18T08:02:59.206Z,29.83
2022-12-18T08:08:01.548Z,26.92
2022-12-18T08:13:05.259Z,25.45
2022-12-18T08:18:12.686Z,23.75
2022-12-18T08:23:16.222Z,28.13
2022-12-18T08:28:18.800Z,27.55
2022-12-18T08:33:21.136Z,24.55
2022-12-18T08:38:24.351Z,25.95
2022-12-18T08:43:44.960Z,29.25
2022-12-18T08:48:48.031Z,22.80
2022-12-18T08:53:50.280Z,25.75
2022-12-18T08:58:56.396Z,24.45
2022-12-18T09:03:58.832Z,22.73
2022-12-18T09:09:01.303Z,19.10
2022-12-18T09:14:04.151Z,22.90
2022-12-18T09:19:08.164Z,24.13
2022-12-18T09:24:15.001Z,23.98
2022-12-18T09:29:18.841Z,17.80
2022-12-18T09:34:23.325Z,23.52
2022-12-18T09:39:25.690Z,24.42
2022-12-18T09:44:32.942Z,27.33
2022-12-18T09:49:42.989Z,19.52
2022-12-18T10:00:26.440Z,25.33
2022-12-18T10:05:53.877Z,20.65
2022-12-18T10:11:05.054Z,26.23
2022-12-18T10:16:19.224Z,25.60
2022-12-18T10:21:32.000Z,20.65
2022-12-18T10:26:34.993Z,30.98
2022-12-18T10:31:37.737Z,23.15
2022-12-18T10:36:40.714Z,30.55
2022-12-18T10:41:43.067Z,25.77
2022-12-18T10:46:50.874Z,26.75
2022-12-18T10:52:05.937Z,27.23
2022-12-18T10:57:18.288Z,33.80
2022-12-18T11:02:39.359Z,27.98
2022-12-18T11:07:51.752Z,28.58
2022-12-18T11:12:54.203Z,27.45
2022-12-18T11:17:56.688Z,31.15
2022-12-18T11:23:05.419Z,26.90
2022-12-18T11:28:42.783Z,33.10
2022-12-18T11:34:27.355Z,26.45
2022-12-18T11:39:42.201Z,25.33
2022-12-18T11:45:12.703Z,22.52
2022-12-18T11:50:32.086Z,24.67
2022-12-18T11:56:04.974Z,25.07
2022-12-18T12:01:30.159Z,25.50
2022-12-18T12:06:44.266Z,23.40
2022-12-18T12:11:52.447Z,23.52
2022-12-18T12:17:12.839Z,28.00
2022-12-18T12:22:20.973Z,34.75
2022-12-18T12:28:07.487Z,33.50
2022-12-18T12:38:52.515Z,31.67
2022-12-18T12:44:00.323Z,29.40
2022-12-18T12:49:12.969Z,32.13
2022-12-18T12:54:23.500Z,26.52
2022-12-18T12:59:36.552Z,28.75
2022-12-18T13:04:54.810Z,28.40
2022-12-18T13:10:21.233Z,30.77
2022-12-18T13:15:36.812Z,27.02
2022-12-18T13:20:52.289Z,24.08
2022-12-18T13:26:11.800Z,23.70
2022-12-18T13:31:42.224Z,24.98
2022-12-18T13:36:45.281Z,19.90
2022-12-18T13:42:35.979Z,18.48
2022-12-18T13:47:39.690Z,21.85
2022-12-18T13:52:41.940Z,25.45
2022-12-18T13:57:44.221Z,16.48
2022-12-18T14:02:48.015Z,25.30
2022-12-18T14:13:12.974Z,20.92
2022-12-18T14:18:29.943Z,19.85
2022-12-18T14:23:36.450Z,25.25
2022-12-18T14:28:46.168Z,20.35
2022-12-18T14:33:48.844Z,37.28
2022-12-18T14:38:53.360Z,29.83
2022-12-18T14:43:56.998Z,30.10
2022-12-18T14:49:00.122Z,22.48
2022-12-18T14:54:09.629Z,21.50
2022-12-18T14:59:24.004Z,24.73
2022-12-18T15:04:32.312Z,22.30
2022-12-18T15:09:34.958Z,15.88
2022-12-18T15:14:37.584Z,23.85
2022-12-18T15:19:43.009Z,17.58
2022-12-18T15:24:45.457Z,25.38
2022-12-18T15:30:21.507Z,19.42
2022-12-18T15:35:26.048Z,21.23
2022-12-18T15:40:28.587Z,19.77
2022-12-18T15:45:31.163Z,19.88
2022-12-18T15:50:33.597Z,23.75
2022-12-18T15:56:00.724Z,18.40
2022-12-18T16:01:03.800Z,18.35
2022-12-18T16:06:06.613Z,14.20
2022-12-18T16:11:39.272Z,14.70
2022-12-18T16:16:41.580Z,13.45
2022-12-18T16:21:46.934Z,21.08
2022-12-18T16:26:50.394Z,20.45
2022-12-18T16:31:53.530Z,22.85
2022-12-18T16:37:01.674Z,20.80
2022-12-18T16:42:27.572Z,15.75
2022-12-18T16:52:52.585Z,29.00
2022-12-18T17:03:14.617Z,13.67
2022-12-18T17:08:16.963Z,14.93
2022-12-18T17:13:25.446Z,19.15
2022-12-18T17:18:28.690Z,21.52
2022-12-18T17:23:31.091Z,17.20
2022-12-18T17:28:34.381Z,18.70
2022-12-18T17:33:36.789Z,21.42
2022-12-18T17:38:39.148Z,23.70
2022-12-18T17:43:46.248Z,28.98
2022-12-18T17:48:49.120Z,20.73
2022-12-18T17:53:52.057Z,30.73
2022-12-18T17:58:54.640Z,40.83
2022-12-18T18:03:57.272Z,26.98
2022-12-18T18:08:59.613Z,32.00
2022-12-18T18:14:03.103Z,30.15
2022-12-18T18:19:08.689Z,32.70
2022-12-18T18:24:13.223Z,43.55
2022-12-18T18:29:18.489Z,32.50
2022-12-18T18:34:29.265Z,28.58
2022-12-18T18:39:31.647Z,29.45
2022-12-18T18:44:33.924Z,25.60
2022-12-18T18:55:12.934Z,30.65
2022-12-18T19:00:16.854Z,32.25
2022-12-18T19:05:19.341Z,40.65
2022-12-18T19:10:21.614Z,31.45
2022-12-18T19:15:24.402Z,28.88
2022-12-18T19:20:28.219Z,29.98
2022-12-18T19:25:40.303Z,24.35
2022-12-18T19:36:16.571Z,30.83
2022-12-18T19:41:20.569Z,22.10
2022-12-18T19:46:24.105Z,21.67
2022-12-18T19:51:28.632Z,28.77
2022-12-18T19:56:33.706Z,41.65
2022-12-18T20:01:38.494Z,55.03
2022-12-18T20:06:52.495Z,42.25
2022-12-18T20:11:55.023Z,32.63
2022-12-18T20:16:58.246Z,34.85
2022-12-18T20:22:02.761Z,33.47
2022-12-18T20:27:06.901Z,47.05
2022-12-18T20:32:12.173Z,40.78
2022-12-18T20:37:17.328Z,43.17
2022-12-18T20:42:21.571Z,47.00
2022-12-18T20:47:23.907Z,40.22
2022-12-18T20:52:26.344Z,40.22
2022-12-18T20:57:28.768Z,42.28
2022-12-18T21:02:31.202Z,38.20
2022-12-18T21:07:33.706Z,37.53
2022-12-18T21:12:40.354Z,45.05
2022-12-18T21:17:46.963Z,32.72
2022-12-18T21:22:49.876Z,33.72
2022-12-18T21:27:52.213Z,30.30
2022-12-18T21:32:54.565Z,24.55
2022-12-18T21:37:56.902Z,22.95
2022-12-18T21:43:17.973Z,21.80
2022-12-18T21:48:20.192Z,15.95
2022-12-18T21:53:22.441Z,12.95
2022-12-18T21:58:24.856Z,13.05
2022-12-18T22:03:27.301Z,14.70
2022-12-18T22:08:29.712Z,15.13
2022-12-18T22:13:32.002Z,10.25
2022-12-18T22:18:34.307Z,10.10
2022-12-18T22:23:36.642Z,13.07
2022-12-18T22:28:57.984Z,8.60
2022-12-18T22:34:00.726Z,8.25
2022-12-18T22:39:03.375Z,8.55
2022-12-18T22:44:05.732Z,6.43
2022-12-18T22:49:15.123Z,8.45
2022-12-18T22:54:17.519Z,6.43
2022-12-18T23:04:42.235Z,7.20
2022-12-18T23:09:45.589Z,17.00
2022-12-18T23:14:50.132Z,4.07
2022-12-18T23:19:52.447Z,9.88
2022-12-18T23:24:54.915Z,10.30
2022-12-18T23:29:57.223Z,6.75
2022-12-18T23:35:01.043Z,9.57
2022-12-18T23:40:04.079Z,6.30
2022-12-18T23:45:17.559Z,6.60
2022-12-18T23:50:23.764Z,9.43
